sensor_id;sensor_type;location;lat;lon;timestamp;P1;durP1;ratioP1;P2;durP2;ratioP2
34645;SDS011;20857;47.808;12.482;2022-08-27T00:01:07;5.50;;;3.20;;
34645;SDS011;20857;47.808;12.482;2022-08-27T00:03:34;6.15;;;3.63;;
34645;SDS011;20857;47.808;12.482;2022-08-27T00:06:00;5.85;;;3.83;;
34645;SDS011;20857;47.808;12.482;2022-08-27T00:08:26;3.92;;;3.30;;
34645;SDS011;20857;47.808;12.482;2022-08-27T00:10:51;4.47;;;3.80;;
34645;SDS011;20857;47.808;12.482;2022-08-27T00:13:17;4.43;;;3.72;;
34645;SDS011;20857;47.808;12.482;2022-08-27T00:15:43;5.22;;;3.95;;
34645;SDS011;20857;47.808;12.482;2022-08-27T00:18:08;10.02;;;5.50;;
34645;SDS011;20857;47.808;12.482;2022-08-27T00:20:34;8.38;;;6.25;;
34645;SDS011;20857;47.808;12.482;2022-08-27T00:23:00;9.70;;;6.05;;
34645;SDS011;20857;47.808;12.482;2022-08-27T00:25:26;10.88;;;7.18;;
34645;SDS011;20857;47.808;12.482;2022-08-27T00:27:52;11.93;;;7.82;;
34645;SDS011;20857;47.808;12.482;2022-08-27T00:30:18;11.43;;;6.43;;
34645;SDS011;20857;47.808;12.482;2022-08-27T00:32:46;12.07;;;6.60;;
34645;SDS011;20857;47.808;12.482;2022-08-27T00:35:12;16.98;;;6.72;;
34645;SDS011;20857;47.808;12.482;2022-08-27T00:37:40;9.30;;;7.07;;
34645;SDS011;20857;47.808;12.482;2022-08-27T00:40:06;12.70;;;6.38;;
34645;SDS011;20857;47.808;12.482;2022-08-27T00:42:34;13.48;;;7.35;;
34645;SDS011;20857;47.808;12.482;2022-08-27T00:45:00;10.70;;;6.32;;
34645;SDS011;20857;47.808;12.482;2022-08-27T00:47:28;10.00;;;6.68;;
34645;SDS011;20857;47.808;12.482;2022-08-27T00:49:57;9.70;;;5.95;;
34645;SDS011;20857;47.808;12.482;2022-08-27T00:55:05;7.22;;;5.40;;
34645;SDS011;20857;47.808;12.482;2022-08-27T00:57:36;6.22;;;5.35;;
34645;SDS011;20857;47.808;12.482;2022-08-27T01:00:06;6.55;;;5.78;;
34645;SDS011;20857;47.808;12.482;2022-08-27T01:02:33;9.48;;;5.22;;
34645;SDS011;20857;47.808;12.482;2022-08-27T01:05:04;5.97;;;5.22;;
34645;SDS011;20857;47.808;12.482;2022-08-27T01:07:38;7.97;;;5.03;;
34645;SDS011;20857;47.808;12.482;2022-08-27T01:10:06;11.27;;;5.05;;
34645;SDS011;20857;47.808;12.482;2022-08-27T01:12:35;6.10;;;5.20;;
34645;SDS011;20857;47.808;12.482;2022-08-27T01:15:03;7.80;;;5.00;;
34645;SDS011;20857;47.808;12.482;2022-08-27T01:17:32;9.48;;;5.20;;
34645;SDS011;20857;47.808;12.482;2022-08-27T01:20:03;6.80;;;5.07;;
34645;SDS011;20857;47.808;12.482;2022-08-27T01:25:06;6.43;;;4.70;;
34645;SDS011;20857;47.808;12.482;2022-08-27T01:27:33;6.22;;;4.30;;
34645;SDS011;20857;47.808;12.482;2022-08-27T01:30:01;14.75;;;4.55;;
34645;SDS011;20857;47.808;12.482;2022-08-27T01:32:29;5.72;;;4.07;;
34645;SDS011;20857;47.808;12.482;2022-08-27T01:34:57;4.57;;;3.90;;
34645;SDS011;20857;47.808;12.482;2022-08-27T01:37:23;4.70;;;4.10;;
34645;SDS011;20857;47.808;12.482;2022-08-27T01:39:51;5.75;;;4.50;;
34645;SDS011;20857;47.808;12.482;2022-08-27T01:42:19;5.40;;;4.32;;
34645;SDS011;20857;47.808;12.482;2022-08-27T01:44:51;6.22;;;3.92;;
34645;SDS011;20857;47.808;12.482;2022-08-27T01:47:20;9.82;;;4.38;;
34645;SDS011;20857;47.808;12.482;2022-08-27T01:49:47;6.10;;;4.60;;
34645;SDS011;20857;47.808;12.482;2022-08-27T01:52:14;5.82;;;4.20;;
34645;SDS011;20857;47.808;12.482;2022-08-27T01:54:43;5.80;;;4.40;;
34645;SDS011;20857;47.808;12.482;2022-08-27T01:57:09;6.65;;;4.18;;
34645;SDS011;20857;47.808;12.482;2022-08-27T01:59:35;6.75;;;4.53;;
34645;SDS011;20857;47.808;12.482;2022-08-27T02:02:00;5.38;;;4.43;;
34645;SDS011;20857;47.808;12.482;2022-08-27T02:04:27;7.63;;;4.30;;
34645;SDS011;20857;47.808;12.482;2022-08-27T02:06:53;5.25;;;4.28;;
34645;SDS011;20857;47.808;12.482;2022-08-27T02:09:19;5.78;;;3.40;;
34645;SDS011;20857;47.808;12.482;2022-08-27T02:11:44;7.78;;;4.72;;
34645;SDS011;20857;47.808;12.482;2022-08-27T02:14:10;6.18;;;4.00;;
34645;SDS011;20857;47.808;12.482;2022-08-27T02:16:36;6.03;;;4.43;;
34645;SDS011;20857;47.808;12.482;2022-08-27T02:19:02;8.02;;;4.07;;
34645;SDS011;20857;47.808;12.482;2022-08-27T02:21:28;6.28;;;3.83;;
34645;SDS011;20857;47.808;12.482;2022-08-27T02:23:53;5.40;;;4.70;;
34645;SDS011;20857;47.808;12.482;2022-08-27T02:26:19;4.63;;;4.05;;
34645;SDS011;20857;47.808;12.482;2022-08-27T02:28:46;4.65;;;4.25;;
34645;SDS011;20857;47.808;12.482;2022-08-27T02:31:11;5.07;;;4.53;;
34645;SDS011;20857;47.808;12.482;2022-08-27T02:33:38;9.43;;;4.95;;
34645;SDS011;20857;47.808;12.482;2022-08-27T02:36:04;5.60;;;4.50;;
34645;SDS011;20857;47.808;12.482;2022-08-27T02:38:29;4.95;;;4.22;;
34645;SDS011;20857;47.808;12.482;2022-08-27T02:40:55;4.45;;;4.00;;
34645;SDS011;20857;47.808;12.482;2022-08-27T02:43:21;5.53;;;4.07;;
34645;SDS011;20857;47.808;12.482;2022-08-27T02:45:46;6.10;;;4.85;;
34645;SDS011;20857;47.808;12.482;2022-08-27T02:48:13;4.63;;;4.18;;
34645;SDS011;20857;47.808;12.482;2022-08-27T02:50:39;4.70;;;4.30;;
34645;SDS011;20857;47.808;12.482;2022-08-27T02:53:05;6.82;;;3.85;;
34645;SDS011;20857;47.808;12.482;2022-08-27T02:55:31;6.32;;;4.50;;
34645;SDS011;20857;47.808;12.482;2022-08-27T02:57:57;4.50;;;4.10;;
34645;SDS011;20857;47.808;12.482;2022-08-27T03:00:23;5.68;;;4.43;;
34645;SDS011;20857;47.808;12.482;2022-08-27T03:02:52;4.45;;;3.90;;
34645;SDS011;20857;47.808;12.482;2022-08-27T03:05:18;4.85;;;4.30;;
34645;SDS011;20857;47.808;12.482;2022-08-27T03:07:44;5.00;;;4.15;;
34645;SDS011;20857;47.808;12.482;2022-08-27T03:10:11;7.80;;;4.63;;
34645;SDS011;20857;47.808;12.482;2022-08-27T03:12:38;5.03;;;4.53;;
34645;SDS011;20857;47.808;12.482;2022-08-27T03:15:05;4.78;;;4.28;;
34645;SDS011;20857;47.808;12.482;2022-08-27T03:17:34;6.22;;;5.10;;
34645;SDS011;20857;47.808;12.482;2022-08-27T03:20:18;5.07;;;4.03;;
34645;SDS011;20857;47.808;12.482;2022-08-27T03:22:44;4.32;;;3.92;;
34645;SDS011;20857;47.808;12.482;2022-08-27T03:25:10;4.28;;;3.85;;
34645;SDS011;20857;47.808;12.482;2022-08-27T03:27:36;5.10;;;4.60;;
34645;SDS011;20857;47.808;12.482;2022-08-27T03:30:04;4.88;;;4.38;;
34645;SDS011;20857;47.808;12.482;2022-08-27T03:32:33;5.20;;;4.15;;
34645;SDS011;20857;47.808;12.482;2022-08-27T03:34:59;4.55;;;4.00;;
34645;SDS011;20857;47.808;12.482;2022-08-27T03:37:25;6.07;;;4.57;;
34645;SDS011;20857;47.808;12.482;2022-08-27T03:39:50;4.80;;;4.35;;
34645;SDS011;20857;47.808;12.482;2022-08-27T03:42:16;7.70;;;3.85;;
34645;SDS011;20857;47.808;12.482;2022-08-27T03:44:42;5.75;;;4.35;;
34645;SDS011;20857;47.808;12.482;2022-08-27T03:47:07;7.80;;;4.63;;
34645;SDS011;20857;47.808;12.482;2022-08-27T03:49:33;6.90;;;4.38;;
34645;SDS011;20857;47.808;12.482;2022-08-27T03:51:58;5.82;;;4.20;;
34645;SDS011;20857;47.808;12.482;2022-08-27T03:54:24;4.85;;;4.30;;
34645;SDS011;20857;47.808;12.482;2022-08-27T03:56:50;5.07;;;4.35;;
34645;SDS011;20857;47.808;12.482;2022-08-27T03:59:16;4.22;;;3.85;;
34645;SDS011;20857;47.808;12.482;2022-08-27T04:01:42;4.88;;;3.72;;
34645;SDS011;20857;47.808;12.482;2022-08-27T04:04:09;5.07;;;3.85;;
34645;SDS011;20857;47.808;12.482;2022-08-27T04:06:35;4.53;;;4.10;;
34645;SDS011;20857;47.808;12.482;2022-08-27T04:09:01;4.88;;;3.80;;
34645;SDS011;20857;47.808;12.482;2022-08-27T04:11:27;4.38;;;3.90;;
34645;SDS011;20857;47.808;12.482;2022-08-27T04:13:53;4.60;;;4.15;;
34645;SDS011;20857;47.808;12.482;2022-08-27T04:16:19;5.70;;;4.10;;
34645;SDS011;20857;47.808;12.482;2022-08-27T04:18:45;6.85;;;4.40;;
34645;SDS011;20857;47.808;12.482;2022-08-27T04:21:12;5.30;;;4.55;;
34645;SDS011;20857;47.808;12.482;2022-08-27T04:23:39;4.22;;;3.83;;
34645;SDS011;20857;47.808;12.482;2022-08-27T04:26:06;5.95;;;3.80;;
34645;SDS011;20857;47.808;12.482;2022-08-27T04:28:33;5.63;;;4.28;;
34645;SDS011;20857;47.808;12.482;2022-08-27T04:31:00;5.63;;;4.55;;
34645;SDS011;20857;47.808;12.482;2022-08-27T04:33:27;5.53;;;4.70;;
34645;SDS011;20857;47.808;12.482;2022-08-27T04:36:03;5.72;;;4.38;;
34645;SDS011;20857;47.808;12.482;2022-08-27T04:38:31;6.55;;;4.55;;
34645;SDS011;20857;47.808;12.482;2022-08-27T04:40:57;5.82;;;5.22;;
34645;SDS011;20857;47.808;12.482;2022-08-27T04:43:49;5.35;;;4.85;;
34645;SDS011;20857;47.808;12.482;2022-08-27T04:46:20;8.63;;;5.72;;
34645;SDS011;20857;47.808;12.482;2022-08-27T04:48:50;8.82;;;5.45;;
34645;SDS011;20857;47.808;12.482;2022-08-27T04:51:17;7.80;;;5.47;;
34645;SDS011;20857;47.808;12.482;2022-08-27T04:53:44;8.98;;;5.50;;
34645;SDS011;20857;47.808;12.482;2022-08-27T04:56:13;8.80;;;5.85;;
34645;SDS011;20857;47.808;12.482;2022-08-27T04:58:40;7.97;;;5.55;;
34645;SDS011;20857;47.808;12.482;2022-08-27T05:01:06;5.90;;;5.35;;
34645;SDS011;20857;47.808;12.482;2022-08-27T05:03:32;7.47;;;6.30;;
34645;SDS011;20857;47.808;12.482;2022-08-27T05:06:02;7.45;;;6.28;;
34645;SDS011;20857;47.808;12.482;2022-08-27T05:08:29;10.35;;;5.80;;
34645;SDS011;20857;47.808;12.482;2022-08-27T05:10:55;6.82;;;5.97;;
34645;SDS011;20857;47.808;12.482;2022-08-27T05:13:21;6.97;;;6.18;;
34645;SDS011;20857;47.808;12.482;2022-08-27T05:15:48;6.50;;;5.90;;
34645;SDS011;20857;47.808;12.482;2022-08-27T05:18:14;8.48;;;6.18;;
34645;SDS011;20857;47.808;12.482;2022-08-27T05:20:44;7.10;;;6.38;;
34645;SDS011;20857;47.808;12.482;2022-08-27T05:23:13;6.80;;;6.10;;
34645;SDS011;20857;47.808;12.482;2022-08-27T05:25:42;7.03;;;6.13;;
34645;SDS011;20857;47.808;12.482;2022-08-27T05:28:10;7.82;;;6.35;;
34645;SDS011;20857;47.808;12.482;2022-08-27T05:30:38;7.30;;;6.57;;
34645;SDS011;20857;47.808;12.482;2022-08-27T05:33:05;6.88;;;6.18;;
34645;SDS011;20857;47.808;12.482;2022-08-27T05:35:35;7.45;;;6.28;;
34645;SDS011;20857;47.808;12.482;2022-08-27T05:38:04;10.30;;;7.15;;
34645;SDS011;20857;47.808;12.482;2022-08-27T05:40:30;6.50;;;5.90;;
34645;SDS011;20857;47.808;12.482;2022-08-27T05:42:56;6.82;;;6.07;;
34645;SDS011;20857;47.808;12.482;2022-08-27T05:45:21;10.48;;;6.53;;
34645;SDS011;20857;47.808;12.482;2022-08-27T05:47:48;7.00;;;5.70;;
34645;SDS011;20857;47.808;12.482;2022-08-27T05:50:13;7.35;;;6.50;;
34645;SDS011;20857;47.808;12.482;2022-08-27T05:52:39;6.82;;;6.22;;
34645;SDS011;20857;47.808;12.482;2022-08-27T05:55:05;7.35;;;6.65;;
34645;SDS011;20857;47.808;12.482;2022-08-27T05:57:32;7.05;;;6.18;;
34645;SDS011;20857;47.808;12.482;2022-08-27T05:59:59;7.32;;;6.30;;
34645;SDS011;20857;47.808;12.482;2022-08-27T06:02:43;6.55;;;5.95;;
34645;SDS011;20857;47.808;12.482;2022-08-27T06:05:10;5.90;;;5.38;;
34645;SDS011;20857;47.808;12.482;2022-08-27T06:07:39;6.45;;;5.85;;
34645;SDS011;20857;47.808;12.482;2022-08-27T06:10:04;6.95;;;5.97;;
34645;SDS011;20857;47.808;12.482;2022-08-27T06:12:31;10.82;;;6.22;;
34645;SDS011;20857;47.808;12.482;2022-08-27T06:14:58;9.32;;;5.60;;
34645;SDS011;20857;47.808;12.482;2022-08-27T06:17:25;6.47;;;5.20;;
34645;SDS011;20857;47.808;12.482;2022-08-27T06:19:50;7.00;;;6.25;;
34645;SDS011;20857;47.808;12.482;2022-08-27T06:22:16;6.97;;;5.55;;
34645;SDS011;20857;47.808;12.482;2022-08-27T06:24:42;5.85;;;4.93;;
34645;SDS011;20857;47.808;12.482;2022-08-27T06:27:08;5.93;;;5.28;;
34645;SDS011;20857;47.808;12.482;2022-08-27T06:29:37;8.98;;;6.13;;
34645;SDS011;20857;47.808;12.482;2022-08-27T06:32:03;7.18;;;5.15;;
34645;SDS011;20857;47.808;12.482;2022-08-27T06:34:29;7.63;;;4.78;;
34645;SDS011;20857;47.808;12.482;2022-08-27T06:36:55;6.47;;;5.38;;
34645;SDS011;20857;47.808;12.482;2022-08-27T06:39:21;8.38;;;5.57;;
34645;SDS011;20857;47.808;12.482;2022-08-27T06:41:46;8.30;;;5.75;;
34645;SDS011;20857;47.808;12.482;2022-08-27T06:44:14;7.57;;;5.07;;
34645;SDS011;20857;47.808;12.482;2022-08-27T06:46:40;6.90;;;5.43;;
34645;SDS011;20857;47.808;12.482;2022-08-27T06:49:07;8.38;;;4.97;;
34645;SDS011;20857;47.808;12.482;2022-08-27T06:51:34;7.88;;;6.00;;
34645;SDS011;20857;47.808;12.482;2022-08-27T06:54:03;6.65;;;5.70;;
34645;SDS011;20857;47.808;12.482;2022-08-27T06:56:31;5.55;;;4.95;;
34645;SDS011;20857;47.808;12.482;2022-08-27T06:58:59;9.30;;;5.55;;
34645;SDS011;20857;47.808;12.482;2022-08-27T07:01:27;7.50;;;4.90;;
34645;SDS011;20857;47.808;12.482;2022-08-27T07:03:54;6.30;;;5.70;;
34645;SDS011;20857;47.808;12.482;2022-08-27T07:06:21;8.80;;;5.05;;
34645;SDS011;20857;47.808;12.482;2022-08-27T07:08:48;11.05;;;5.28;;
34645;SDS011;20857;47.808;12.482;2022-08-27T07:11:13;5.85;;;5.25;;
34645;SDS011;20857;47.808;12.482;2022-08-27T07:13:40;5.15;;;3.85;;
34645;SDS011;20857;47.808;12.482;2022-08-27T07:16:07;5.93;;;4.70;;
34645;SDS011;20857;47.808;12.482;2022-08-27T07:18:34;6.20;;;4.55;;
34645;SDS011;20857;47.808;12.482;2022-08-27T07:21:00;6.68;;;4.65;;
34645;SDS011;20857;47.808;12.482;2022-08-27T07:23:28;6.25;;;4.60;;
34645;SDS011;20857;47.808;12.482;2022-08-27T07:25:58;6.15;;;5.13;;
34645;SDS011;20857;47.808;12.482;2022-08-27T07:28:24;6.82;;;4.68;;
34645;SDS011;20857;47.808;12.482;2022-08-27T07:30:51;7.53;;;4.43;;
34645;SDS011;20857;47.808;12.482;2022-08-27T07:33:17;5.28;;;4.38;;
34645;SDS011;20857;47.808;12.482;2022-08-27T07:35:43;6.10;;;4.78;;
34645;SDS011;20857;47.808;12.482;2022-08-27T07:38:11;5.72;;;4.78;;
34645;SDS011;20857;47.808;12.482;2022-08-27T07:40:37;5.82;;;4.20;;
34645;SDS011;20857;47.808;12.482;2022-08-27T07:43:06;4.93;;;4.38;;
34645;SDS011;20857;47.808;12.482;2022-08-27T07:45:51;10.75;;;4.47;;
34645;SDS011;20857;47.808;12.482;2022-08-27T07:48:23;5.72;;;4.50;;
34645;SDS011;20857;47.808;12.482;2022-08-27T07:50:59;6.72;;;4.35;;
34645;SDS011;20857;47.808;12.482;2022-08-27T07:53:36;5.80;;;5.20;;
34645;SDS011;20857;47.808;12.482;2022-08-27T07:56:03;5.47;;;4.47;;
34645;SDS011;20857;47.808;12.482;2022-08-27T07:58:30;9.40;;;4.43;;
34645;SDS011;20857;47.808;12.482;2022-08-27T08:00:56;5.10;;;4.57;;
34645;SDS011;20857;47.808;12.482;2022-08-27T08:03:22;12.30;;;5.72;;
34645;SDS011;20857;47.808;12.482;2022-08-27T08:05:47;5.30;;;4.80;;
34645;SDS011;20857;47.808;12.482;2022-08-27T08:08:17;5.00;;;3.97;;
34645;SDS011;20857;47.808;12.482;2022-08-27T08:10:46;5.43;;;4.20;;
34645;SDS011;20857;47.808;12.482;2022-08-27T08:13:12;7.85;;;4.50;;
34645;SDS011;20857;47.808;12.482;2022-08-27T08:15:42;5.63;;;3.83;;
34645;SDS011;20857;47.808;12.482;2022-08-27T08:18:10;6.75;;;3.75;;
34645;SDS011;20857;47.808;12.482;2022-08-27T08:20:36;4.85;;;4.00;;
34645;SDS011;20857;47.808;12.482;2022-08-27T08:23:02;5.20;;;3.58;;
34645;SDS011;20857;47.808;12.482;2022-08-27T08:25:28;4.05;;;3.65;;
34645;SDS011;20857;47.808;12.482;2022-08-27T08:27:54;5.05;;;3.53;;
34645;SDS011;20857;47.808;12.482;2022-08-27T08:30:20;5.30;;;3.53;;
34645;SDS011;20857;47.808;12.482;2022-08-27T08:32:46;4.05;;;3.38;;
34645;SDS011;20857;47.808;12.482;2022-08-27T08:35:12;4.75;;;3.55;;
34645;SDS011;20857;47.808;12.482;2022-08-27T08:37:41;7.25;;;3.78;;
34645;SDS011;20857;47.808;12.482;2022-08-27T08:40:07;5.00;;;3.35;;
34645;SDS011;20857;47.808;12.482;2022-08-27T08:42:36;5.50;;;3.13;;
34645;SDS011;20857;47.808;12.482;2022-08-27T08:45:07;4.85;;;3.50;;
34645;SDS011;20857;47.808;12.482;2022-08-27T08:47:45;5.40;;;3.77;;
34645;SDS011;20857;47.808;12.482;2022-08-27T08:53:11;5.28;;;3.47;;
34645;SDS011;20857;47.808;12.482;2022-08-27T08:55:55;3.40;;;3.10;;
34645;SDS011;20857;47.808;12.482;2022-08-27T08:58:32;3.88;;;2.92;;
34645;SDS011;20857;47.808;12.482;2022-08-27T09:01:22;4.55;;;2.72;;
34645;SDS011;20857;47.808;12.482;2022-08-27T09:03:51;6.18;;;3.20;;
34645;SDS011;20857;47.808;12.482;2022-08-27T09:09:19;6.15;;;3.40;;
34645;SDS011;20857;47.808;12.482;2022-08-27T09:11:49;4.35;;;3.72;;
34645;SDS011;20857;47.808;12.482;2022-08-27T09:17:08;7.28;;;3.78;;
34645;SDS011;20857;47.808;12.482;2022-08-27T09:19:34;3.50;;;3.20;;
34645;SDS011;20857;47.808;12.482;2022-08-27T09:27:23;4.22;;;3.20;;
34645;SDS011;20857;47.808;12.482;2022-08-27T09:29:50;6.55;;;3.47;;
34645;SDS011;20857;47.808;12.482;2022-08-27T09:32:31;3.97;;;3.58;;
34645;SDS011;20857;47.808;12.482;2022-08-27T09:34:59;3.97;;;3.58;;
34645;SDS011;20857;47.808;12.482;2022-08-27T09:37:31;7.47;;;4.22;;
34645;SDS011;20857;47.808;12.482;2022-08-27T09:42:46;5.85;;;3.90;;
34645;SDS011;20857;47.808;12.482;2022-08-27T09:45:15;6.50;;;3.70;;
34645;SDS011;20857;47.808;12.482;2022-08-27T09:48:06;7.00;;;4.18;;
34645;SDS011;20857;47.808;12.482;2022-08-27T09:50:32;5.93;;;4.93;;
34645;SDS011;20857;47.808;12.482;2022-08-27T09:53:18;6.30;;;4.03;;
34645;SDS011;20857;47.808;12.482;2022-08-27T09:55:57;8.70;;;4.90;;
34645;SDS011;20857;47.808;12.482;2022-08-27T09:58:26;7.70;;;4.90;;
34645;SDS011;20857;47.808;12.482;2022-08-27T10:01:05;6.22;;;4.65;;
34645;SDS011;20857;47.808;12.482;2022-08-27T10:03:41;9.85;;;5.40;;
34645;SDS011;20857;47.808;12.482;2022-08-27T10:06:07;6.97;;;5.13;;
34645;SDS011;20857;47.808;12.482;2022-08-27T10:08:36;7.28;;;4.57;;
34645;SDS011;20857;47.808;12.482;2022-08-27T10:14:25;10.95;;;5.03;;
34645;SDS011;20857;47.808;12.482;2022-08-27T10:16:46;5.57;;;5.03;;
34645;SDS011;20857;47.808;12.482;2022-08-27T10:19:41;10.02;;;4.68;;
34645;SDS011;20857;47.808;12.482;2022-08-27T10:27:53;9.43;;;5.20;;
34645;SDS011;20857;47.808;12.482;2022-08-27T10:33:11;6.53;;;4.97;;
34645;SDS011;20857;47.808;12.482;2022-08-27T10:38:37;7.00;;;5.93;;
34645;SDS011;20857;47.808;12.482;2022-08-27T10:41:11;11.15;;;6.28;;
34645;SDS011;20857;47.808;12.482;2022-08-27T10:49:29;9.20;;;6.13;;
34645;SDS011;20857;47.808;12.482;2022-08-27T10:52:20;9.52;;;6.32;;
34645;SDS011;20857;47.808;12.482;2022-08-27T11:00:12;11.98;;;5.88;;
34645;SDS011;20857;47.808;12.482;2022-08-27T11:03:03;7.63;;;5.50;;
34645;SDS011;20857;47.808;12.482;2022-08-27T11:05:57;9.13;;;6.57;;
34645;SDS011;20857;47.808;12.482;2022-08-27T11:08:26;9.00;;;6.65;;
34645;SDS011;20857;47.808;12.482;2022-08-27T11:11:01;10.00;;;6.78;;
34645;SDS011;20857;47.808;12.482;2022-08-27T11:13:36;8.70;;;6.82;;
34645;SDS011;20857;47.808;12.482;2022-08-27T11:16:07;7.93;;;6.57;;
34645;SDS011;20857;47.808;12.482;2022-08-27T11:18:46;7.80;;;5.95;;
34645;SDS011;20857;47.808;12.482;2022-08-27T11:24:16;9.82;;;6.85;;
34645;SDS011;20857;47.808;12.482;2022-08-27T11:26:50;7.80;;;6.22;;
34645;SDS011;20857;47.808;12.482;2022-08-27T11:29:31;11.77;;;7.18;;
34645;SDS011;20857;47.808;12.482;2022-08-27T11:32:06;11.48;;;6.47;;
34645;SDS011;20857;47.808;12.482;2022-08-27T11:34:58;9.10;;;6.30;;
34645;SDS011;20857;47.808;12.482;2022-08-27T11:43:05;9.73;;;6.80;;
34645;SDS011;20857;47.808;12.482;2022-08-27T11:45:34;10.65;;;6.75;;
34645;SDS011;20857;47.808;12.482;2022-08-27T11:50:56;9.65;;;6.47;;
34645;SDS011;20857;47.808;12.482;2022-08-27T11:53:37;9.13;;;7.32;;
34645;SDS011;20857;47.808;12.482;2022-08-27T11:56:31;9.07;;;7.65;;
34645;SDS011;20857;47.808;12.482;2022-08-27T12:01:34;12.88;;;7.57;;
34645;SDS011;20857;47.808;12.482;2022-08-27T12:04:18;8.95;;;7.05;;
34645;SDS011;20857;47.808;12.482;2022-08-27T12:06:59;13.25;;;7.50;;
34645;SDS011;20857;47.808;12.482;2022-08-27T12:17:35;8.88;;;7.43;;
34645;SDS011;20857;47.808;12.482;2022-08-27T12:28:41;7.30;;;6.05;;
34645;SDS011;20857;47.808;12.482;2022-08-27T12:31:06;7.78;;;6.63;;
34645;SDS011;20857;47.808;12.482;2022-08-27T12:33:34;9.77;;;6.68;;
34645;SDS011;20857;47.808;12.482;2022-08-27T12:36:12;8.15;;;6.63;;
34645;SDS011;20857;47.808;12.482;2022-08-27T12:38:45;11.88;;;6.82;;
34645;SDS011;20857;47.808;12.482;2022-08-27T12:46:30;10.68;;;6.55;;
34645;SDS011;20857;47.808;12.482;2022-08-27T12:49:00;8.00;;;5.78;;
34645;SDS011;20857;47.808;12.482;2022-08-27T12:51:29;12.10;;;7.50;;
34645;SDS011;20857;47.808;12.482;2022-08-27T13:05:05;12.68;;;6.55;;
34645;SDS011;20857;47.808;12.482;2022-08-27T13:07:33;11.82;;;6.95;;
34645;SDS011;20857;47.808;12.482;2022-08-27T13:10:16;10.40;;;6.75;;
34645;SDS011;20857;47.808;12.482;2022-08-27T13:12:58;8.38;;;6.20;;
34645;SDS011;20857;47.808;12.482;2022-08-27T13:15:35;8.63;;;5.68;;
34645;SDS011;20857;47.808;12.482;2022-08-27T13:18:05;6.07;;;5.00;;
34645;SDS011;20857;47.808;12.482;2022-08-27T13:20:33;8.52;;;5.28;;
34645;SDS011;20857;47.808;12.482;2022-08-27T13:23:01;10.98;;;6.13;;
34645;SDS011;20857;47.808;12.482;2022-08-27T13:25:29;8.95;;;6.20;;
34645;SDS011;20857;47.808;12.482;2022-08-27T13:28:09;9.45;;;6.82;;
34645;SDS011;20857;47.808;12.482;2022-08-27T13:30:43;9.13;;;6.25;;
34645;SDS011;20857;47.808;12.482;2022-08-27T13:52:51;9.20;;;5.40;;
34645;SDS011;20857;47.808;12.482;2022-08-27T13:55:44;12.55;;;6.95;;
34645;SDS011;20857;47.808;12.482;2022-08-27T13:58:14;9.07;;;5.70;;
34645;SDS011;20857;47.808;12.482;2022-08-27T14:03:29;10.98;;;6.18;;
34645;SDS011;20857;47.808;12.482;2022-08-27T14:09:26;8.07;;;5.95;;
34645;SDS011;20857;47.808;12.482;2022-08-27T14:12:00;7.90;;;5.70;;
34645;SDS011;20857;47.808;12.482;2022-08-27T14:14:29;7.50;;;5.50;;
34645;SDS011;20857;47.808;12.482;2022-08-27T14:17:02;7.13;;;4.70;;
34645;SDS011;20857;47.808;12.482;2022-08-27T14:19:33;8.23;;;5.63;;
34645;SDS011;20857;47.808;12.482;2022-08-27T14:21:59;6.30;;;4.57;;
34645;SDS011;20857;47.808;12.482;2022-08-27T14:24:25;12.20;;;5.47;;
34645;SDS011;20857;47.808;12.482;2022-08-27T14:26:54;6.35;;;5.43;;
34645;SDS011;20857;47.808;12.482;2022-08-27T14:29:28;8.63;;;6.28;;
34645;SDS011;20857;47.808;12.482;2022-08-27T14:31:53;11.85;;;5.68;;
34645;SDS011;20857;47.808;12.482;2022-08-27T14:34:20;6.80;;;5.35;;
34645;SDS011;20857;47.808;12.482;2022-08-27T14:36:46;7.85;;;5.28;;
34645;SDS011;20857;47.808;12.482;2022-08-27T14:39:12;9.30;;;6.00;;
34645;SDS011;20857;47.808;12.482;2022-08-27T14:41:38;8.05;;;5.85;;
34645;SDS011;20857;47.808;12.482;2022-08-27T14:44:04;9.73;;;5.47;;
34645;SDS011;20857;47.808;12.482;2022-08-27T14:46:30;8.18;;;5.45;;
34645;SDS011;20857;47.808;12.482;2022-08-27T14:48:59;10.48;;;5.82;;
34645;SDS011;20857;47.808;12.482;2022-08-27T14:51:30;6.60;;;5.20;;
34645;SDS011;20857;47.808;12.482;2022-08-27T14:53:56;8.13;;;5.95;;
34645;SDS011;20857;47.808;12.482;2022-08-27T14:56:23;9.10;;;5.50;;
34645;SDS011;20857;47.808;12.482;2022-08-27T14:58:49;13.73;;;6.03;;
34645;SDS011;20857;47.808;12.482;2022-08-27T15:01:15;12.13;;;5.70;;
34645;SDS011;20857;47.808;12.482;2022-08-27T15:03:46;9.63;;;6.20;;
34645;SDS011;20857;47.808;12.482;2022-08-27T15:06:14;11.02;;;6.28;;
34645;SDS011;20857;47.808;12.482;2022-08-27T15:08:41;6.93;;;5.88;;
34645;SDS011;20857;47.808;12.482;2022-08-27T15:11:11;7.85;;;5.22;;
34645;SDS011;20857;47.808;12.482;2022-08-27T15:13:44;9.52;;;5.72;;
34645;SDS011;20857;47.808;12.482;2022-08-27T15:16:14;7.10;;;5.13;;
34645;SDS011;20857;47.808;12.482;2022-08-27T15:18:50;7.53;;;5.43;;
34645;SDS011;20857;47.808;12.482;2022-08-27T15:21:15;10.55;;;5.50;;
34645;SDS011;20857;47.808;12.482;2022-08-27T15:23:41;7.22;;;5.38;;
34645;SDS011;20857;47.808;12.482;2022-08-27T15:26:08;13.25;;;5.45;;
34645;SDS011;20857;47.808;12.482;2022-08-27T15:28:34;8.23;;;5.40;;
34645;SDS011;20857;47.808;12.482;2022-08-27T15:31:01;10.20;;;5.78;;
34645;SDS011;20857;47.808;12.482;2022-08-27T15:33:26;9.55;;;5.25;;
34645;SDS011;20857;47.808;12.482;2022-08-27T15:35:52;10.07;;;5.93;;
34645;SDS011;20857;47.808;12.482;2022-08-27T15:38:18;8.25;;;5.78;;
34645;SDS011;20857;47.808;12.482;2022-08-27T15:40:43;8.77;;;6.00;;
34645;SDS011;20857;47.808;12.482;2022-08-27T15:43:09;7.28;;;5.22;;
34645;SDS011;20857;47.808;12.482;2022-08-27T15:45:36;10.85;;;6.25;;
34645;SDS011;20857;47.808;12.482;2022-08-27T15:48:03;9.35;;;5.10;;
34645;SDS011;20857;47.808;12.482;2022-08-27T15:53:00;10.63;;;5.85;;
34645;SDS011;20857;47.808;12.482;2022-08-27T15:55:30;9.07;;;5.60;;
34645;SDS011;20857;47.808;12.482;2022-08-27T15:57:58;12.10;;;6.20;;
34645;SDS011;20857;47.808;12.482;2022-08-27T16:00:24;9.48;;;5.55;;
34645;SDS011;20857;47.808;12.482;2022-08-27T16:02:51;8.38;;;5.68;;
34645;SDS011;20857;47.808;12.482;2022-08-27T16:05:17;12.18;;;5.60;;
34645;SDS011;20857;47.808;12.482;2022-08-27T16:07:44;9.05;;;5.60;;
34645;SDS011;20857;47.808;12.482;2022-08-27T16:10:11;11.52;;;5.35;;
34645;SDS011;20857;47.808;12.482;2022-08-27T16:12:38;8.45;;;5.75;;
34645;SDS011;20857;47.808;12.482;2022-08-27T16:15:05;9.05;;;5.68;;
34645;SDS011;20857;47.808;12.482;2022-08-27T16:17:33;12.43;;;6.40;;
34645;SDS011;20857;47.808;12.482;2022-08-27T16:20:00;10.35;;;5.65;;
34645;SDS011;20857;47.808;12.482;2022-08-27T16:22:26;7.03;;;5.15;;
34645;SDS011;20857;47.808;12.482;2022-08-27T16:24:52;7.35;;;4.30;;
34645;SDS011;20857;47.808;12.482;2022-08-27T16:27:18;7.82;;;5.00;;
34645;SDS011;20857;47.808;12.482;2022-08-27T16:29:43;8.65;;;5.07;;
34645;SDS011;20857;47.808;12.482;2022-08-27T16:32:10;10.95;;;5.65;;
34645;SDS011;20857;47.808;12.482;2022-08-27T16:34:41;9.73;;;5.95;;
34645;SDS011;20857;47.808;12.482;2022-08-27T16:37:06;13.23;;;5.97;;
34645;SDS011;20857;47.808;12.482;2022-08-27T16:39:32;9.95;;;5.38;;
34645;SDS011;20857;47.808;12.482;2022-08-27T16:41:58;7.85;;;5.30;;
34645;SDS011;20857;47.808;12.482;2022-08-27T16:44:23;8.02;;;5.63;;
34645;SDS011;20857;47.808;12.482;2022-08-27T16:46:50;10.10;;;5.82;;